KBDR

Igor I Sikorsky Memorial Airport

Bridgeport, Connecticut, USA
KBDR 170155Z 1702/1724 26007KT P6SM BKN250 FM171400 26014G22KT P6SM SCT250 FM171700 28018G26KT P6SM SCT060 FM171900 29020G28KT P6SM BKN060 FM172300 29016G24KT P6SM BKN060
Issued Valid From Valid To
Oct-17 @ 01:55 UTC
(3 hours ago)
Oct-17 @ 02:00 UTC
(3 hours ago)
Oct-18 @ 00:00 UTC
(in 19 hours)
Oct-17 @ 02:00 to Oct-17 @ 14:00
KBDR 170155Z 1702/1724 26007KT P6SM BKN250
Wind Visibility Clouds
260° at 7 knots Greater than 6 miles
  • Broken at 25,000' AGL
From Oct-17 @ 14:00 to Oct-17 @ 17:00
FM171400 26014G22KT P6SM SCT250
Wind Visibility Clouds
260° at 14 knots
 Gusting to 22 knots
Greater than 6 miles
  • Scattered at 25,000' AGL
From Oct-17 @ 17:00 to Oct-17 @ 19:00
FM171700 28018G26KT P6SM SCT060
Wind Visibility Clouds
280° at 18 knots
 Gusting to 26 knots
Greater than 6 miles
  • Scattered at 6,000' AGL
From Oct-17 @ 19:00 to Oct-17 @ 23:00
FM171900 29020G28KT P6SM BKN060
Wind Visibility Clouds
290° at 20 knots
 Gusting to 28 knots
Greater than 6 miles
  • Broken at 6,000' AGL
From Oct-17 @ 23:00 to Oct-18 @ 00:00
FM172300 29016G24KT P6SM BKN060
Wind Visibility Clouds
290° at 16 knots
 Gusting to 24 knots
Greater than 6 miles
  • Broken at 6,000' AGL
KBDR 170155Z 1702/1724 26007KT P6SM BKN250 FM171400 26014G22KT P6SM SCT250 FM171700 28018G26KT P6SM SCT060 FM171900 29020G28KT P6SM BKN060 FM172300 29016G24KT P6SM BKN060
Issued Oct-17 @ 01:55 UTC
(3 hours ago)
Valid From Oct-17 @ 02:00 UTC
(3 hours ago)
Valid To Oct-18 @ 00:00 UTC
(in 19 hours)
Oct-17 @ 02:00 - Oct-17 @ 14:00
Wind Visibility
260° at 7 knots Greater than 6 miles
Clouds
  • Broken at 25,000' AGL
From Oct-17 @ 14:00 - Oct-17 @ 17:00
Wind Visibility
260° at 14 knots
 Gusting to 22 knots
Greater than 6 miles
Clouds
  • Scattered at 25,000' AGL
From Oct-17 @ 17:00 - Oct-17 @ 19:00
Wind Visibility
280° at 18 knots
 Gusting to 26 knots
Greater than 6 miles
Clouds
  • Scattered at 6,000' AGL
From Oct-17 @ 19:00 - Oct-17 @ 23:00
Wind Visibility
290° at 20 knots
 Gusting to 28 knots
Greater than 6 miles
Clouds
  • Broken at 6,000' AGL
From Oct-17 @ 23:00 - Oct-18 @ 00:00
Wind Visibility
290° at 16 knots
 Gusting to 24 knots
Greater than 6 miles
Clouds
  • Broken at 6,000' AGL